createdAt,value
2018-05-27T00:00:28.041Z,0
2018-05-27T00:01:38.034Z,0
2018-05-27T00:02:47.750Z,0
2018-05-27T00:03:57.476Z,0
2018-05-27T00:05:07.443Z,0
2018-05-27T00:06:17.162Z,0
2018-05-27T00:07:26.914Z,0
2018-05-27T00:08:36.916Z,0
2018-05-27T00:09:46.888Z,0
2018-05-27T00:10:56.889Z,0
2018-05-27T00:12:06.853Z,0
2018-05-27T00:13:16.837Z,0
2018-05-27T00:14:26.557Z,0
2018-05-27T00:15:36.010Z,0
2018-05-27T00:16:45.468Z,0
2018-05-27T00:17:55.440Z,0
2018-05-27T00:19:05.431Z,0
2018-05-27T00:20:15.417Z,0
2018-05-27T00:21:25.397Z,0
2018-05-27T00:22:34.861Z,0
2018-05-27T00:23:44.584Z,0
2018-05-27T00:24:54.297Z,0
2018-05-27T00:26:04.285Z,0
2018-05-27T00:27:14.267Z,0
2018-05-27T00:28:24.253Z,0
2018-05-27T00:29:34.244Z,0
2018-05-27T00:30:44.225Z,0
2018-05-27T00:31:54.243Z,0
2018-05-27T00:33:04.244Z,0
2018-05-27T00:34:14.204Z,0
2018-05-27T00:35:24.247Z,0
2018-05-27T00:36:33.976Z,0
2018-05-27T00:37:43.939Z,0
2018-05-27T00:38:53.650Z,0
2018-05-27T00:40:03.637Z,0
2018-05-27T00:41:13.653Z,0
2018-05-27T00:42:23.677Z,0
2018-05-27T00:43:33.653Z,0
2018-05-27T00:44:43.620Z,0
2018-05-27T00:45:53.092Z,0
2018-05-27T00:47:03.060Z,0
2018-05-27T00:48:13.040Z,0
2018-05-27T00:49:23.028Z,0
2018-05-27T00:50:32.748Z,0
2018-05-27T00:51:42.729Z,0
2018-05-27T00:52:52.707Z,0
2018-05-27T00:54:02.687Z,0
2018-05-27T00:55:12.409Z,0
2018-05-27T00:56:22.386Z,0
2018-05-27T00:57:32.093Z,0
2018-05-27T00:58:41.804Z,0
2018-05-27T00:59:51.803Z,0
2018-05-27T01:01:01.536Z,0
2018-05-27T01:02:11.524Z,0
2018-05-27T01:03:21.235Z,0
2018-05-27T01:04:30.948Z,0
2018-05-27T01:05:40.933Z,0
2018-05-27T01:06:50.911Z,0
2018-05-27T01:08:00.623Z,0
2018-05-27T01:09:10.614Z,0
2018-05-27T01:10:20.597Z,0
2018-05-27T01:11:30.578Z,0
2018-05-27T01:12:40.546Z,0
2018-05-27T01:13:50.263Z,0
2018-05-27T01:14:59.981Z,0
2018-05-27T01:16:09.954Z,0
2018-05-27T01:17:19.941Z,0
2018-05-27T01:18:29.922Z,0
2018-05-27T01:19:39.886Z,0
2018-05-27T01:20:49.881Z,0
2018-05-27T01:21:59.606Z,0
2018-05-27T01:23:09.579Z,0
2018-05-27T01:24:19.546Z,0
2018-05-27T01:25:29.256Z,0
2018-05-27T01:26:39.253Z,0
2018-05-27T01:27:48.957Z,0
2018-05-27T01:28:58.949Z,0
2018-05-27T01:30:08.930Z,0
2018-05-27T01:31:18.920Z,0
2018-05-27T01:32:28.651Z,0
2018-05-27T01:33:38.625Z,0
2018-05-27T01:34:48.331Z,0
2018-05-27T01:35:58.309Z,0
2018-05-27T01:37:08.282Z,0
2018-05-27T01:38:18.253Z,0
2018-05-27T01:39:27.982Z,0
2018-05-27T01:40:37.703Z,0
2018-05-27T01:41:47.674Z,0
2018-05-27T01:42:57.660Z,0
2018-05-27T01:44:07.362Z,0
2018-05-27T01:45:17.071Z,0
2018-05-27T01:46:26.797Z,0
2018-05-27T01:47:36.505Z,0
2018-05-27T01:48:46.489Z,0
2018-05-27T01:49:56.468Z,0
2018-05-27T01:51:06.433Z,0
2018-05-27T01:52:16.405Z,0
2018-05-27T01:53:26.121Z,0
2018-05-27T01:54:35.574Z,0
2018-05-27T01:55:45.290Z,0
2018-05-27T01:56:55.255Z,0
2018-05-27T01:58:04.982Z,0
2018-05-27T01:59:14.696Z,0
2018-05-27T02:00:24.417Z,0
2018-05-27T02:01:34.432Z,0
2018-05-27T02:02:44.396Z,0
2018-05-27T02:03:53.838Z,0
2018-05-27T02:05:03.830Z,0
2018-05-27T02:06:13.563Z,0
2018-05-27T02:07:23.535Z,0
2018-05-27T02:08:33.505Z,0
2018-05-27T02:09:43.478Z,0
2018-05-27T02:10:53.453Z,0
2018-05-27T02:12:02.917Z,0
2018-05-27T02:13:12.637Z,0
2018-05-27T02:14:22.626Z,0
2018-05-27T02:15:32.655Z,0
2018-05-27T02:16:42.373Z,0
2018-05-27T02:17:52.347Z,0
2018-05-27T02:19:01.946Z,0
2018-05-27T02:20:11.916Z,0
2018-05-27T02:21:21.889Z,0
2018-05-27T02:22:31.604Z,0
2018-05-27T02:23:41.576Z,0
2018-05-27T02:24:51.555Z,0
2018-05-27T02:26:01.536Z,0
2018-05-27T02:27:11.510Z,0
2018-05-27T02:28:21.230Z,0
2018-05-27T02:29:30.965Z,0
2018-05-27T02:30:40.948Z,0
2018-05-27T02:31:50.985Z,0
2018-05-27T02:33:00.958Z,0
2018-05-27T02:34:10.940Z,0
2018-05-27T02:35:20.402Z,0
2018-05-27T02:36:30.383Z,0
2018-05-27T02:37:40.387Z,0
2018-05-27T02:38:50.103Z,0
2018-05-27T02:40:00.091Z,0
2018-05-27T02:41:10.093Z,0
2018-05-27T02:42:20.076Z,0
2018-05-27T02:43:30.054Z,0
2018-05-27T02:44:40.028Z,5
2018-05-27T02:45:50.048Z,5
2018-05-27T02:47:00.027Z,5
2018-05-27T02:48:10.035Z,5
2018-05-27T02:49:19.793Z,5
2018-05-27T02:50:29.515Z,5
2018-05-27T02:51:39.730Z,5
2018-05-27T02:52:49.456Z,10
2018-05-27T02:53:59.434Z,10
2018-05-27T02:55:09.154Z,10
2018-05-27T02:56:18.867Z,10
2018-05-27T02:57:28.570Z,15
2018-05-27T02:58:38.539Z,15
2018-05-27T02:59:48.256Z,15
2018-05-27T03:00:58.234Z,15
2018-05-27T03:02:08.238Z,20
2018-05-27T03:03:17.951Z,20
2018-05-27T03:04:27.933Z,20
2018-05-27T03:05:37.920Z,25
2018-05-27T03:06:47.891Z,25
2018-05-27T03:07:57.615Z,25
2018-05-27T03:09:07.592Z,30
2018-05-27T03:10:17.574Z,30
2018-05-27T03:11:27.544Z,30
2018-05-27T03:12:37.510Z,35
2018-05-27T03:13:47.733Z,35
2018-05-27T03:14:57.707Z,35
2018-05-27T03:16:07.683Z,40
2018-05-27T03:17:17.397Z,40
2018-05-27T03:18:27.359Z,45
2018-05-27T03:19:37.342Z,45
2018-05-27T03:20:47.317Z,50
2018-05-27T03:21:56.776Z,50
2018-05-27T03:23:06.770Z,55
2018-05-27T03:24:16.492Z,55
2018-05-27T03:25:26.458Z,60
2018-05-27T03:26:36.160Z,60
2018-05-27T03:27:45.881Z,65
2018-05-27T03:28:55.857Z,65
2018-05-27T03:30:05.836Z,70
2018-05-27T03:31:15.834Z,70
2018-05-27T03:32:25.544Z,75
2018-05-27T03:33:35.526Z,75
2018-05-27T03:34:45.502Z,80
2018-05-27T03:35:55.216Z,80
2018-05-27T03:37:05.184Z,85
2018-05-27T03:38:15.161Z,85
2018-05-27T03:39:25.127Z,90
2018-05-27T03:40:34.839Z,90
2018-05-27T03:41:44.554Z,95
2018-05-27T03:42:54.276Z,95
2018-05-27T03:44:04.248Z,100
2018-05-27T03:45:14.228Z,100
2018-05-27T03:46:24.216Z,100
2018-05-27T03:47:33.935Z,105
2018-05-27T03:48:43.914Z,105
2018-05-27T03:49:53.881Z,110
2018-05-27T03:51:03.863Z,110
2018-05-27T03:52:13.848Z,115
2018-05-27T03:53:23.572Z,115
2018-05-27T03:54:33.291Z,120
2018-05-27T03:55:42.486Z,120
2018-05-27T03:56:52.453Z,125
2018-05-27T03:58:02.429Z,125
2018-05-27T03:59:12.140Z,130
2018-05-27T04:00:22.110Z,130
2018-05-27T04:01:31.820Z,135
2018-05-27T04:02:41.786Z,135
2018-05-27T04:03:51.494Z,140
2018-05-27T04:05:01.470Z,140
2018-05-27T04:06:11.467Z,145
2018-05-27T04:07:21.173Z,145
2018-05-27T04:08:31.151Z,150
2018-05-27T04:09:41.118Z,150
2018-05-27T04:10:51.195Z,150
2018-05-27T04:12:01.168Z,155
2018-05-27T04:13:11.139Z,155
2018-05-27T04:14:20.613Z,160
2018-05-27T04:15:30.325Z,160
2018-05-27T04:16:40.291Z,165
2018-05-27T04:17:50.017Z,165
2018-05-27T04:18:59.995Z,170
2018-05-27T04:20:10.001Z,170
2018-05-27T04:21:19.970Z,170
2018-05-27T04:22:29.945Z,170
2018-05-27T04:23:39.936Z,175
2018-05-27T04:24:49.905Z,175
2018-05-27T04:25:59.623Z,175
2018-05-27T04:27:09.333Z,175
2018-05-27T04:28:19.315Z,180
2018-05-27T04:29:28.791Z,180
2018-05-27T04:30:38.780Z,185
2018-05-27T04:31:48.748Z,185
2018-05-27T04:32:58.456Z,185
2018-05-27T04:34:08.419Z,190
2018-05-27T04:35:18.128Z,190
2018-05-27T04:36:28.129Z,190
2018-05-27T04:37:38.093Z,195
2018-05-27T04:38:47.803Z,195
2018-05-27T04:39:57.505Z,200
2018-05-27T04:41:07.480Z,200
2018-05-27T04:42:17.185Z,200
2018-05-27T04:43:26.894Z,205
2018-05-27T04:44:36.612Z,205
2018-05-27T04:45:46.580Z,205
2018-05-27T04:46:56.333Z,210
2018-05-27T04:48:06.307Z,210
2018-05-27T04:49:16.288Z,210
2018-05-27T04:50:26.001Z,215
2018-05-27T04:51:35.715Z,215
2018-05-27T04:52:45.699Z,220
2018-05-27T04:53:55.419Z,220
2018-05-27T04:55:05.126Z,220
2018-05-27T04:56:15.102Z,230
2018-05-27T04:57:25.078Z,225
2018-05-27T04:58:34.827Z,225
2018-05-27T04:59:44.811Z,230
2018-05-27T05:00:54.785Z,230
2018-05-27T05:02:04.749Z,235
2018-05-27T05:03:14.724Z,235
2018-05-27T05:04:24.424Z,235
2018-05-27T05:05:34.142Z,235
2018-05-27T05:06:43.599Z,240
2018-05-27T05:07:53.564Z,240
2018-05-27T05:09:03.285Z,240
2018-05-27T05:10:13.255Z,245
2018-05-27T05:11:23.224Z,245
2018-05-27T05:12:33.197Z,245
2018-05-27T05:13:43.160Z,250
2018-05-27T05:14:53.275Z,250
2018-05-27T05:16:03.259Z,250
2018-05-27T05:17:12.968Z,250
2018-05-27T05:18:22.951Z,255
2018-05-27T05:19:32.429Z,255
2018-05-27T05:20:42.397Z,255
2018-05-27T05:21:52.383Z,255
2018-05-27T05:23:02.096Z,260
2018-05-27T05:24:11.809Z,260
2018-05-27T05:25:21.787Z,260
2018-05-27T05:26:31.764Z,265
2018-05-27T05:27:41.866Z,265
2018-05-27T05:28:51.532Z,265
2018-05-27T05:30:01.495Z,265
2018-05-27T05:31:11.223Z,270
2018-05-27T05:32:21.194Z,270
2018-05-27T05:33:30.920Z,270
2018-05-27T05:34:40.901Z,270
2018-05-27T05:35:50.896Z,275
2018-05-27T05:37:00.621Z,275
2018-05-27T05:38:10.589Z,280
2018-05-27T05:39:20.052Z,280
2018-05-27T05:40:30.075Z,280
2018-05-27T05:41:40.067Z,285
2018-05-27T05:42:50.039Z,285
2018-05-27T05:43:59.748Z,285
2018-05-27T05:45:09.461Z,285
2018-05-27T05:46:19.438Z,290
2018-05-27T05:47:29.413Z,290
2018-05-27T05:48:39.408Z,290
2018-05-27T05:49:49.119Z,290
2018-05-27T05:50:59.094Z,295
2018-05-27T05:52:08.804Z,295
2018-05-27T05:53:18.794Z,295
2018-05-27T05:54:28.761Z,295
2018-05-27T05:55:38.740Z,300
2018-05-27T05:56:48.703Z,300
2018-05-27T05:57:58.684Z,300
2018-05-27T05:59:08.651Z,300
2018-05-27T06:00:18.636Z,305
2018-05-27T06:01:28.617Z,305
2018-05-27T06:02:38.085Z,305
2018-05-27T06:03:48.059Z,305
2018-05-27T06:04:58.027Z,310
2018-05-27T06:06:08.005Z,310
2018-05-27T06:07:17.980Z,310
2018-05-27T06:08:27.968Z,310
2018-05-27T06:09:37.935Z,315
2018-05-27T06:10:47.916Z,315
2018-05-27T06:11:57.907Z,315
2018-05-27T06:13:07.363Z,315
2018-05-27T06:14:17.063Z,315
2018-05-27T06:15:26.778Z,320
2018-05-27T06:16:36.236Z,320
2018-05-27T06:17:45.954Z,325
2018-05-27T06:18:55.672Z,325
2018-05-27T06:20:05.390Z,330
2018-05-27T06:21:15.369Z,330
2018-05-27T06:22:25.104Z,330
2018-05-27T06:23:35.107Z,335
2018-05-27T06:24:44.844Z,335
2018-05-27T06:25:54.964Z,340
2018-05-27T06:27:04.934Z,340
2018-05-27T06:28:14.908Z,340
2018-05-27T06:29:24.890Z,345
2018-05-27T06:30:34.611Z,345
2018-05-27T06:31:44.586Z,345
2018-05-27T06:32:54.054Z,345
2018-05-27T06:34:03.778Z,345
2018-05-27T06:35:13.769Z,350
2018-05-27T06:36:23.737Z,350
2018-05-27T06:37:33.466Z,350
2018-05-27T06:38:43.532Z,350
2018-05-27T06:39:53.529Z,355
2018-05-27T06:41:03.003Z,355
2018-05-27T06:42:12.991Z,355
2018-05-27T06:43:22.714Z,360
2018-05-27T06:44:32.482Z,360
2018-05-27T06:45:42.194Z,360
2018-05-27T06:46:52.172Z,360
2018-05-27T06:48:01.893Z,365
2018-05-27T06:49:11.609Z,365
2018-05-27T06:50:21.577Z,365
2018-05-27T06:51:31.549Z,370
2018-05-27T06:52:41.519Z,370
2018-05-27T06:53:51.499Z,380
2018-05-27T06:55:01.489Z,375
2018-05-27T06:56:11.213Z,375
2018-05-27T06:57:21.190Z,380
2018-05-27T06:58:30.922Z,380
2018-05-27T06:59:40.895Z,380
2018-05-27T07:00:50.888Z,385
2018-05-27T07:02:00.867Z,385
2018-05-27T07:03:10.594Z,385
2018-05-27T07:04:20.571Z,390
2018-05-27T07:05:30.558Z,390
2018-05-27T07:06:40.281Z,390
2018-05-27T07:07:50.251Z,395
2018-05-27T07:09:00.232Z,395
2018-05-27T07:10:10.271Z,395
2018-05-27T07:11:20.242Z,400
2018-05-27T07:12:29.968Z,400
2018-05-27T07:13:39.944Z,400
2018-05-27T07:14:49.717Z,405
2018-05-27T07:15:59.699Z,405
2018-05-27T07:17:09.954Z,405
2018-05-27T07:18:20.009Z,405
2018-05-27T07:19:29.991Z,410
2018-05-27T07:20:39.720Z,410
2018-05-27T07:21:49.708Z,410
2018-05-27T07:22:59.740Z,410
2018-05-27T07:24:09.223Z,415
2018-05-27T07:25:18.941Z,415
2018-05-27T07:26:28.909Z,425
2018-05-27T07:27:38.903Z,420
2018-05-27T07:28:48.890Z,420
2018-05-27T07:29:58.860Z,430
2018-05-27T07:31:08.854Z,425
2018-05-27T07:32:19.046Z,425
2018-05-27T07:33:29.031Z,430
2018-05-27T07:34:39.234Z,425
2018-05-27T07:35:49.216Z,430
2018-05-27T07:36:59.210Z,435
2018-05-27T07:38:09.191Z,430
2018-05-27T07:39:19.201Z,430
2018-05-27T07:40:28.958Z,435
2018-05-27T07:41:38.948Z,440
2018-05-27T07:42:48.696Z,435
2018-05-27T07:43:58.423Z,435
2018-05-27T07:45:08.394Z,440
2018-05-27T07:46:18.391Z,440
2018-05-27T07:47:28.394Z,440
2018-05-27T07:48:38.425Z,440
2018-05-27T07:49:48.146Z,440
2018-05-27T07:50:57.619Z,445
2018-05-27T07:52:07.596Z,445
2018-05-27T07:53:17.319Z,445
2018-05-27T07:54:27.055Z,455
2018-05-27T07:55:37.059Z,450
2018-05-27T07:56:47.054Z,455
2018-05-27T07:57:57.038Z,455
2018-05-27T07:59:07.014Z,455
2018-05-27T08:00:16.497Z,460
2018-05-27T08:01:26.479Z,460
2018-05-27T08:02:36.482Z,465
2018-05-27T08:03:46.247Z,465
2018-05-27T08:04:56.265Z,470
2018-05-27T08:06:06.251Z,470
2018-05-27T08:07:16.575Z,470
2018-05-27T08:08:26.552Z,475
2018-05-27T08:09:36.523Z,475
2018-05-27T08:10:46.232Z,480
2018-05-27T08:11:55.971Z,480
2018-05-27T08:13:05.959Z,485
2018-05-27T08:14:15.418Z,490
2018-05-27T08:15:25.400Z,490
2018-05-27T08:16:35.425Z,495
2018-05-27T08:17:45.149Z,495
2018-05-27T08:18:55.139Z,500
2018-05-27T08:20:05.357Z,500
2018-05-27T08:21:15.400Z,505
2018-05-27T08:22:25.394Z,510
2018-05-27T08:23:35.156Z,515
2018-05-27T08:24:44.893Z,520
2018-05-27T08:25:54.876Z,525
2018-05-27T08:27:04.861Z,530
2018-05-27T08:28:14.852Z,540
2018-05-27T08:29:24.834Z,705
2018-05-27T08:30:34.553Z,1080
2018-05-27T08:31:44.548Z,1205
2018-05-27T08:32:54.537Z,1185
2018-05-27T08:34:04.264Z,1280
2018-05-27T08:35:13.869Z,1270
2018-05-27T08:36:23.859Z,1265
2018-05-27T08:37:33.875Z,1275
2018-05-27T08:38:43.605Z,1300
2018-05-27T08:39:53.340Z,1275
2018-05-27T08:41:03.350Z,1130
2018-05-27T08:42:13.065Z,1185
2018-05-27T08:43:23.102Z,1310
2018-05-27T08:44:33.117Z,1290
2018-05-27T08:45:43.103Z,1365
2018-05-27T08:46:52.830Z,1395
2018-05-27T08:48:02.848Z,1350
2018-05-27T08:49:12.935Z,1345
2018-05-27T08:50:22.956Z,1435
2018-05-27T08:51:32.953Z,1440
2018-05-27T08:52:42.938Z,1425
2018-05-27T08:53:52.927Z,1325
2018-05-27T08:55:02.670Z,1405
2018-05-27T08:56:12.666Z,1550
2018-05-27T08:57:22.861Z,1460
2018-05-27T08:58:32.944Z,1480
2018-05-27T08:59:42.937Z,1515
2018-05-27T09:00:52.925Z,1485
2018-05-27T09:02:02.933Z,1605
2018-05-27T09:03:12.936Z,1590
2018-05-27T09:04:22.924Z,1540
2018-05-27T09:05:32.663Z,1530
2018-05-27T09:06:42.394Z,1680
2018-05-27T09:07:52.142Z,1555
2018-05-27T09:09:02.073Z,1550
2018-05-27T09:10:12.140Z,1640
2018-05-27T09:11:22.133Z,1620
2018-05-27T09:12:31.864Z,1690
2018-05-27T09:13:41.869Z,1705
2018-05-27T09:14:51.619Z,1700
2018-05-27T09:16:01.635Z,1700
2018-05-27T09:17:11.403Z,1725
2018-05-27T09:18:21.391Z,1750
2018-05-27T09:19:31.388Z,1750
2018-05-27T09:20:41.115Z,1770
2018-05-27T09:21:51.111Z,1690
2018-05-27T09:23:01.107Z,1680
2018-05-27T09:24:11.161Z,1795
2018-05-27T09:25:21.227Z,1785
2018-05-27T09:26:31.216Z,1900
2018-05-27T09:27:40.960Z,1865
2018-05-27T09:28:50.723Z,1795
2018-05-27T09:30:00.722Z,1875
2018-05-27T09:31:10.720Z,1870
2018-05-27T09:32:20.710Z,1785
2018-05-27T09:33:30.184Z,1865
2018-05-27T09:34:40.197Z,1905
2018-05-27T09:35:49.942Z,1915
2018-05-27T09:36:59.964Z,1855
2018-05-27T09:38:09.706Z,1865
2018-05-27T09:39:19.661Z,1880
2018-05-27T09:40:29.689Z,1910
2018-05-27T09:41:39.417Z,1930
2018-05-27T09:42:49.399Z,1945
2018-05-27T09:43:59.407Z,1965
2018-05-27T09:45:09.247Z,1965
2018-05-27T09:46:19.264Z,1975
2018-05-27T09:47:29.266Z,2050
2018-05-27T09:48:39.271Z,2080
2018-05-27T09:49:48.999Z,2010
2018-05-27T09:50:59.054Z,2035
2018-05-27T09:52:08.533Z,2115
2018-05-27T09:53:18.273Z,2150
2018-05-27T09:54:28.267Z,2080
2018-05-27T09:55:38.494Z,2015
2018-05-27T09:56:48.495Z,2050
2018-05-27T09:57:58.783Z,2145
2018-05-27T09:59:08.521Z,2175
2018-05-27T10:00:18.546Z,2130
2018-05-27T10:01:28.528Z,2060
2018-05-27T10:02:38.257Z,2085
2018-05-27T10:03:48.255Z,2255
2018-05-27T10:04:58.240Z,2400
2018-05-27T10:06:08.255Z,2290
2018-05-27T10:07:18.262Z,2225
2018-05-27T10:08:28.265Z,2250
2018-05-27T10:09:38.024Z,2175
2018-05-27T10:10:48.019Z,2160
2018-05-27T10:11:58.141Z,2225
2018-05-27T10:13:08.137Z,2245
2018-05-27T10:14:18.124Z,2270
2018-05-27T10:15:27.883Z,2295
2018-05-27T10:16:37.911Z,2305
2018-05-27T10:17:47.407Z,2335
2018-05-27T10:18:57.568Z,2365
2018-05-27T10:20:07.562Z,2350
2018-05-27T10:21:17.567Z,2345
2018-05-27T10:22:27.303Z,2345
2018-05-27T10:23:37.033Z,2395
2018-05-27T10:24:47.070Z,2395
2018-05-27T10:25:57.469Z,2395
2018-05-27T10:27:07.469Z,2380
2018-05-27T10:28:17.469Z,2325
2018-05-27T10:29:27.473Z,2375
2018-05-27T10:30:37.473Z,2420
2018-05-27T10:31:47.477Z,2380
2018-05-27T10:32:57.478Z,2325
2018-05-27T10:34:07.461Z,2290
2018-05-27T10:35:17.470Z,2275
2018-05-27T10:36:27.465Z,2340
2018-05-27T10:37:37.480Z,2400
2018-05-27T10:38:47.493Z,2420
2018-05-27T10:39:57.502Z,2375
2018-05-27T10:41:07.506Z,2510
2018-05-27T10:42:17.002Z,2645
2018-05-27T10:43:27.000Z,2560
2018-05-27T10:44:36.992Z,2575
2018-05-27T10:45:46.985Z,2545
2018-05-27T10:46:56.993Z,2560
2018-05-27T10:48:07.007Z,2575
2018-05-27T10:49:16.992Z,2510
2018-05-27T10:50:27.032Z,2530
2018-05-27T10:51:37.031Z,2580
2018-05-27T10:52:47.027Z,2600
2018-05-27T10:53:57.023Z,2635
2018-05-27T10:55:07.032Z,2680
2018-05-27T10:56:17.035Z,2745
2018-05-27T10:57:26.764Z,2725
2018-05-27T10:58:36.492Z,2695
2018-05-27T10:59:46.492Z,2665
2018-05-27T11:00:56.494Z,2670
2018-05-27T11:02:06.001Z,2675
2018-05-27T11:03:15.992Z,2745
2018-05-27T11:04:26.037Z,2765
2018-05-27T11:05:35.843Z,2730
2018-05-27T11:06:45.595Z,2770
2018-05-27T11:07:55.347Z,2755
2018-05-27T11:09:05.347Z,2795
2018-05-27T11:10:15.089Z,2855
2018-05-27T11:11:25.091Z,2850
2018-05-27T11:12:35.087Z,2900
2018-05-27T11:13:45.087Z,2850
2018-05-27T11:14:55.080Z,2785
2018-05-27T11:16:05.074Z,2810
2018-05-27T11:17:15.073Z,2820
2018-05-27T11:18:25.079Z,2830
2018-05-27T11:19:35.088Z,2835
2018-05-27T11:20:45.274Z,2840
2018-05-27T11:21:55.316Z,2870
2018-05-27T11:23:05.365Z,2835
2018-05-27T11:24:15.365Z,2790
2018-05-27T11:25:25.111Z,2810
2018-05-27T11:26:35.113Z,2920
2018-05-27T11:27:45.140Z,1345
2018-05-27T11:28:55.176Z,1195
2018-05-27T11:30:05.138Z,805
2018-05-27T11:31:15.130Z,770
2018-05-27T11:32:24.859Z,760
2018-05-27T11:33:34.846Z,770
2018-05-27T11:34:44.848Z,800
2018-05-27T11:35:54.892Z,840
2018-05-27T11:37:05.053Z,865
2018-05-27T11:38:14.788Z,835
2018-05-27T11:39:24.775Z,745
2018-05-27T11:40:34.776Z,715
2018-05-27T11:41:44.770Z,740
2018-05-27T11:42:54.518Z,810
2018-05-27T11:44:04.530Z,920
2018-05-27T11:45:14.266Z,1205
2018-05-27T11:46:23.994Z,1545
2018-05-27T11:47:34.004Z,1410
2018-05-27T11:48:44.280Z,1315
2018-05-27T11:49:54.019Z,1255
2018-05-27T11:51:04.031Z,1260
2018-05-27T11:52:13.780Z,1360
2018-05-27T11:53:23.521Z,1485
2018-05-27T11:54:33.528Z,1510
2018-05-27T11:55:43.532Z,1035
2018-05-27T11:56:53.258Z,890
2018-05-27T11:58:03.275Z,845
2018-05-27T11:59:13.277Z,800
2018-05-27T12:00:22.750Z,760
2018-05-27T12:01:32.488Z,705
2018-05-27T12:02:42.500Z,650
2018-05-27T12:03:51.991Z,630
2018-05-27T12:05:01.983Z,630
2018-05-27T12:06:11.981Z,630
2018-05-27T12:07:21.714Z,635
2018-05-27T12:08:31.713Z,595
2018-05-27T12:09:43.147Z,540
2018-05-27T12:10:53.094Z,485
2018-05-27T12:12:03.071Z,445
2018-05-27T12:13:13.055Z,415
2018-05-27T12:14:23.092Z,375
2018-05-27T12:15:33.091Z,355
2018-05-27T12:16:43.093Z,345
2018-05-27T12:17:52.845Z,340
2018-05-27T12:19:02.843Z,350
2018-05-27T12:20:12.583Z,375
2018-05-27T12:21:22.592Z,420
2018-05-27T12:22:32.585Z,485
2018-05-27T12:23:42.601Z,540
2018-05-27T12:24:52.603Z,550
2018-05-27T12:26:02.605Z,720
2018-05-27T12:27:12.634Z,790
2018-05-27T12:28:22.647Z,775
2018-05-27T12:29:32.124Z,690
2018-05-27T12:30:42.117Z,630
2018-05-27T12:31:51.849Z,585
2018-05-27T12:33:01.844Z,565
2018-05-27T12:34:11.599Z,565
2018-05-27T12:35:21.594Z,570
2018-05-27T12:36:31.327Z,575
2018-05-27T12:37:41.061Z,565
2018-05-27T12:38:51.061Z,540
2018-05-27T12:40:01.042Z,515
2018-05-27T12:41:10.809Z,515
2018-05-27T12:42:20.812Z,510
2018-05-27T12:43:30.789Z,500
2018-05-27T12:44:40.546Z,490
2018-05-27T12:45:50.307Z,480
2018-05-27T12:47:00.045Z,470
2018-05-27T12:48:09.792Z,490
2018-05-27T12:49:19.519Z,530
2018-05-27T12:50:29.263Z,590
2018-05-27T12:51:38.998Z,665
2018-05-27T12:52:48.720Z,730
2018-05-27T12:53:58.452Z,775
2018-05-27T12:55:08.445Z,825
2018-05-27T12:56:18.168Z,885
2018-05-27T12:57:28.163Z,915
2018-05-27T12:58:38.154Z,870
2018-05-27T12:59:48.144Z,855
2018-05-27T13:00:57.886Z,845
2018-05-27T13:02:07.877Z,805
2018-05-27T13:03:17.653Z,760
2018-05-27T13:04:27.337Z,715
2018-05-27T13:05:37.051Z,715
2018-05-27T13:06:47.139Z,710
2018-05-27T13:07:56.877Z,720
2018-05-27T13:09:06.875Z,740
2018-05-27T13:10:16.623Z,775
2018-05-27T13:11:26.614Z,810
2018-05-27T13:12:36.614Z,860
2018-05-27T13:13:46.600Z,935
2018-05-27T13:14:56.357Z,995
2018-05-27T13:16:06.350Z,1055
2018-05-27T13:17:16.108Z,1140
2018-05-27T13:18:25.836Z,1350
2018-05-27T13:19:35.586Z,1385
2018-05-27T13:20:45.322Z,1310
2018-05-27T13:21:55.310Z,1310
2018-05-27T13:23:05.343Z,1410
2018-05-27T13:24:15.353Z,1470
2018-05-27T13:25:25.329Z,1510
2018-05-27T13:26:35.333Z,2750
2018-05-27T13:27:45.069Z,2230
2018-05-27T13:28:54.814Z,1775
2018-05-27T13:30:05.003Z,1990
2018-05-27T13:31:14.558Z,1620
2018-05-27T13:32:24.560Z,1295
2018-05-27T13:33:34.040Z,1225
2018-05-27T13:34:43.794Z,1225
2018-05-27T13:35:53.797Z,1300
2018-05-27T13:37:03.787Z,1350
2018-05-27T13:38:13.791Z,2145
2018-05-27T13:39:23.270Z,2250
2018-05-27T13:40:33.273Z,1835
2018-05-27T13:41:43.281Z,2335
2018-05-27T13:42:53.264Z,1570
2018-05-27T13:44:03.011Z,1860
2018-05-27T13:45:13.148Z,1650
2018-05-27T13:46:23.152Z,1585
2018-05-27T13:47:32.635Z,1605
2018-05-27T13:48:42.648Z,1480
2018-05-27T13:49:52.646Z,1280
2018-05-27T13:51:02.649Z,1115
2018-05-27T13:52:12.382Z,1000
2018-05-27T13:53:22.387Z,885
2018-05-27T13:54:31.607Z,760
2018-05-27T13:55:41.699Z,690
2018-05-27T13:56:51.449Z,655
2018-05-27T13:58:01.452Z,630
2018-05-27T13:59:11.454Z,620
2018-05-27T14:00:21.431Z,615
2018-05-27T14:01:31.438Z,615
2018-05-27T14:02:41.152Z,610
2018-05-27T14:03:51.138Z,600
2018-05-27T14:05:00.889Z,590
2018-05-27T14:06:10.807Z,585
2018-05-27T14:07:20.598Z,575
2018-05-27T14:08:30.594Z,560
2018-05-27T14:09:40.368Z,555
2018-05-27T14:10:50.098Z,545
2018-05-27T14:12:00.084Z,540
2018-05-27T14:13:10.090Z,525
2018-05-27T14:14:20.080Z,515
2018-05-27T14:15:30.103Z,505
2018-05-27T14:16:40.143Z,500
2018-05-27T14:17:50.147Z,500
2018-05-27T14:19:00.139Z,495
2018-05-27T14:20:10.150Z,495
2018-05-27T14:21:20.141Z,495
2018-05-27T14:22:29.862Z,495
2018-05-27T14:23:39.851Z,500
2018-05-27T14:24:49.577Z,505
2018-05-27T14:25:59.590Z,505
2018-05-27T14:27:09.576Z,515
2018-05-27T14:28:19.563Z,525
2018-05-27T14:29:29.553Z,540
2018-05-27T14:30:39.544Z,560
2018-05-27T14:31:49.549Z,560
2018-05-27T14:32:59.551Z,575
2018-05-27T14:34:09.569Z,590
2018-05-27T14:35:19.299Z,600
2018-05-27T14:36:29.290Z,595
2018-05-27T14:37:39.017Z,600
2018-05-27T14:38:48.538Z,605
2018-05-27T14:39:58.228Z,605
2018-05-27T14:41:07.971Z,605
2018-05-27T14:42:17.997Z,605
2018-05-27T14:43:27.737Z,600
2018-05-27T14:44:37.718Z,595
2018-05-27T14:45:47.780Z,580
2018-05-27T14:46:57.762Z,570
2018-05-27T14:48:07.757Z,560
2018-05-27T14:49:17.736Z,555
2018-05-27T14:50:27.502Z,555
2018-05-27T14:51:37.490Z,565
2018-05-27T14:52:47.483Z,570
2018-05-27T14:53:57.228Z,580
2018-05-27T14:55:07.219Z,610
2018-05-27T14:56:16.699Z,645
2018-05-27T14:57:26.450Z,695
2018-05-27T14:58:36.468Z,745
2018-05-27T14:59:46.450Z,790
2018-05-27T15:00:56.180Z,825
2018-05-27T15:02:06.181Z,825
2018-05-27T15:03:16.168Z,830
2018-05-27T15:04:26.147Z,835
2018-05-27T15:05:36.125Z,835
2018-05-27T15:06:46.123Z,910
2018-05-27T15:07:56.116Z,875
2018-05-27T15:09:06.132Z,820
2018-05-27T15:10:16.131Z,740
2018-05-27T15:11:25.852Z,685
2018-05-27T15:12:35.596Z,655
2018-05-27T15:13:45.596Z,640
2018-05-27T15:14:55.581Z,635
2018-05-27T15:16:05.570Z,650
2018-05-27T15:17:15.304Z,655
2018-05-27T15:18:25.439Z,675
2018-05-27T15:19:35.450Z,715
2018-05-27T15:20:45.440Z,760
2018-05-27T15:21:55.427Z,750
2018-05-27T15:23:05.145Z,720
2018-05-27T15:24:15.135Z,745
2018-05-27T15:25:25.034Z,710
2018-05-27T15:26:35.099Z,655
2018-05-27T15:27:45.092Z,610
2018-05-27T15:28:54.838Z,580
2018-05-27T15:30:04.581Z,565
2018-05-27T15:31:14.562Z,550
2018-05-27T15:32:24.797Z,540
2018-05-27T15:33:34.830Z,535
2018-05-27T15:34:44.830Z,535
2018-05-27T15:35:54.863Z,535
2018-05-27T15:37:04.859Z,545
2018-05-27T15:38:14.314Z,550
2018-05-27T15:39:24.317Z,560
2018-05-27T15:40:34.061Z,565
2018-05-27T15:41:44.041Z,570
2018-05-27T15:42:54.042Z,565
2018-05-27T15:44:03.510Z,555
2018-05-27T15:45:13.502Z,540
2018-05-27T15:46:23.495Z,535
2018-05-27T15:47:33.509Z,540
2018-05-27T15:48:43.490Z,540
2018-05-27T15:49:53.214Z,545
2018-05-27T15:51:03.202Z,535
2018-05-27T15:52:13.193Z,515
2018-05-27T15:53:23.189Z,490
2018-05-27T15:54:32.666Z,480
2018-05-27T15:55:42.404Z,480
2018-05-27T15:56:52.158Z,525
2018-05-27T15:58:02.144Z,515
2018-05-27T15:59:11.376Z,520
2018-05-27T16:00:21.367Z,520
2018-05-27T16:01:31.357Z,560
2018-05-27T16:02:40.841Z,780
2018-05-27T16:03:50.828Z,510
2018-05-27T16:05:00.644Z,510
2018-05-27T16:06:10.647Z,520
2018-05-27T16:07:20.623Z,525
2018-05-27T16:08:30.628Z,540